Time,TemperatureF,DewpointF,PressureIn,WindDirection,WindDirectionDegrees,WindSpeedMPH,WindSpeedGustMPH,Humidity,HourlyPrecipIn,Conditions,Clouds,dailyrainin,SolarRadiationWatts/m^2,SoftwareType,DateUTC
2013-02-11 00:02:00,65.0,56.0,-100.00,SE,128,4.0,11.0,74,0.00,,,0.00,0.000000,,2013-02-11 05:02:00,
2013-02-11 00:22:00,65.0,56.0,-100.00,SSW,193,3.0,12.0,74,0.00,,,0.00,0.000000,,2013-02-11 05:22:00,
2013-02-11 00:32:00,65.0,56.0,-100.00,SSW,193,3.0,12.0,74,0.00,,,0.00,0.000000,,2013-02-11 05:32:00,
2013-02-11 00:42:00,65.0,56.0,-100.00,SSW,193,3.0,12.0,74,0.00,,,0.00,0.000000,,2013-02-11 05:42:00,
2013-02-11 00:53:00,65.0,56.0,-100.00,SSW,193,3.0,12.0,74,0.00,,,0.00,0.000000,,2013-02-11 05:53:00,
2013-02-11 01:02:00,65.0,56.0,-100.00,SSW,193,3.0,12.0,74,0.00,,,0.00,0.000000,,2013-02-11 06:02:00,
2013-02-11 01:32:00,64.0,56.0,-100.00,SW,216,2.0,6.0,76,0.00,,,0.00,0.000000,,2013-02-11 06:32:00,
2013-02-11 01:42:00,64.0,56.0,-100.00,SW,216,2.0,6.0,76,0.00,,,0.00,0.000000,,2013-02-11 06:42:00,
2013-02-11 01:52:00,64.0,56.0,-100.00,SW,216,2.0,6.0,76,0.00,,,0.00,0.000000,,2013-02-11 06:52:00,
2013-02-11 02:02:00,64.0,56.0,-100.00,SW,216,2.0,6.0,76,0.00,,,0.00,0.000000,,2013-02-11 07:02:00,
2013-02-11 02:32:00,65.0,57.0,-100.00,SSE,163,4.0,9.0,75,0.00,,,0.00,0.000000,,2013-02-11 07:32:00,
2013-02-11 02:42:00,65.0,57.0,-100.00,SSE,163,4.0,9.0,75,0.00,,,0.00,0.000000,,2013-02-11 07:42:00,
2013-02-11 02:52:00,65.0,57.0,-100.00,SSE,163,4.0,9.0,75,0.00,,,0.00,0.000000,,2013-02-11 07:52:00,
2013-02-11 03:01:00,65.0,57.0,-100.00,SSE,163,4.0,9.0,75,0.00,,,0.00,0.000000,,2013-02-11 08:01:00,
2013-02-11 03:32:00,65.0,56.0,-100.00,SSW,194,4.0,10.0,74,0.00,,,0.00,0.000000,,2013-02-11 08:32:00,
2013-02-11 03:42:00,65.0,56.0,-100.00,SSW,194,4.0,10.0,74,0.00,,,0.00,0.000000,,2013-02-11 08:42:00,
2013-02-11 03:52:00,65.0,56.0,-100.00,SSW,194,4.0,10.0,74,0.00,,,0.00,0.000000,,2013-02-11 08:52:00,
2013-02-11 04:02:00,65.0,56.0,-100.00,SSW,194,4.0,10.0,74,0.00,,,0.00,0.000000,,2013-02-11 09:02:00,
2013-02-11 04:32:00,65.0,56.0,-100.00,SSE,151,2.0,8.0,74,0.00,,,0.00,0.000000,,2013-02-11 09:32:00,
2013-02-11 04:42:00,65.0,56.0,-100.00,SSE,151,2.0,8.0,74,0.00,,,0.00,0.000000,,2013-02-11 09:42:00,
2013-02-11 04:52:00,65.0,56.0,-100.00,SSE,151,2.0,8.0,74,0.00,,,0.00,0.000000,,2013-02-11 09:52:00,
2013-02-11 05:01:00,65.0,56.0,-100.00,SSE,151,2.0,8.0,74,0.00,,,0.00,0.000000,,2013-02-11 10:01:00,
2013-02-11 05:32:00,63.0,56.0,-100.00,WNW,296,1.0,5.0,79,0.00,,,0.00,0.000000,,2013-02-11 10:32:00,
2013-02-11 05:42:00,63.0,56.0,-100.00,WNW,296,1.0,5.0,79,0.00,,,0.00,0.000000,,2013-02-11 10:42:00,
2013-02-11 05:52:00,63.0,56.0,-100.00,WNW,296,1.0,5.0,79,0.00,,,0.00,0.000000,,2013-02-11 10:52:00,
2013-02-11 06:02:00,63.0,56.0,-100.00,WNW,296,1.0,5.0,79,0.00,,,0.00,0.000000,,2013-02-11 11:02:00,
2013-02-11 06:32:00,61.0,56.0,-100.00,SE,132,0.0,2.0,85,0.00,,,0.00,0.000000,,2013-02-11 11:32:00,
2013-02-11 06:42:00,61.0,56.0,-100.00,SE,132,0.0,2.0,85,0.00,,,0.00,0.000000,,2013-02-11 11:42:00,
2013-02-11 06:52:00,61.0,56.0,-100.00,SE,132,0.0,2.0,85,0.00,,,0.00,0.000000,,2013-02-11 11:52:00,
2013-02-11 07:03:00,61.0,56.0,-100.00,SE,132,0.0,2.0,85,0.00,,,0.00,0.000000,,2013-02-11 12:03:00,
2013-02-11 07:32:00,61.0,57.0,-100.00,ESE,106,1.0,4.0,86,0.00,,,-99.99,0.000000,,2013-02-11 12:32:00,
2013-02-11 07:42:00,61.0,57.0,-100.00,ESE,106,1.0,4.0,86,0.00,,,-99.99,0.000000,,2013-02-11 12:42:00,
2013-02-11 07:52:00,61.0,57.0,-100.00,ESE,106,1.0,4.0,86,0.00,,,-99.99,0.000000,,2013-02-11 12:52:00,
2013-02-11 08:02:00,61.0,57.0,-100.00,ESE,106,1.0,4.0,86,0.00,,,-99.99,0.000000,,2013-02-11 13:02:00,
2013-02-11 08:33:00,63.0,58.0,-100.00,WNW,291,1.0,4.0,84,0.00,,,-99.99,13.000000,,2013-02-11 13:33:00,
2013-02-11 08:42:00,63.0,58.0,-100.00,WNW,291,1.0,4.0,84,0.00,,,-99.99,13.000000,,2013-02-11 13:42:00,
2013-02-11 08:52:00,63.0,58.0,-100.00,WNW,291,1.0,4.0,84,0.00,,,-99.99,13.000000,,2013-02-11 13:52:00,
2013-02-11 09:02:00,63.0,58.0,-100.00,WNW,291,1.0,4.0,84,0.00,,,-99.99,13.000000,,2013-02-11 14:02:00,
2013-02-11 09:33:00,66.0,61.0,-100.00,SE,133,1.0,5.0,83,0.00,,,-99.99,77.000000,,2013-02-11 14:33:00,
2013-02-11 09:42:00,66.0,61.0,-100.00,SE,133,1.0,5.0,83,0.00,,,-99.99,77.000000,,2013-02-11 14:42:00,
2013-02-11 09:53:00,66.0,61.0,-100.00,SE,133,1.0,5.0,83,0.00,,,-99.99,77.000000,,2013-02-11 14:53:00,
2013-02-11 10:02:00,66.0,61.0,-100.00,SE,133,1.0,5.0,83,0.00,,,-99.99,77.000000,,2013-02-11 15:02:00,
2013-02-11 10:32:00,71.0,62.0,-100.00,WSW,243,4.0,8.0,73,0.00,,,0.00,225.000000,,2013-02-11 15:32:00,
2013-02-11 10:42:00,71.0,62.0,-100.00,WSW,243,4.0,8.0,73,0.00,,,0.00,225.000000,,2013-02-11 15:42:00,
2013-02-11 10:52:00,71.0,62.0,-100.00,WSW,243,4.0,8.0,73,0.00,,,0.00,225.000000,,2013-02-11 15:52:00,
2013-02-11 11:02:00,71.0,62.0,-100.00,WSW,243,4.0,8.0,73,0.00,,,0.00,225.000000,,2013-02-11 16:02:00,
2013-02-11 11:32:00,73.0,61.0,-100.00,SSW,209,5.0,12.0,65,0.00,,,0.00,306.000000,,2013-02-11 16:32:00,
2013-02-11 11:42:00,73.0,61.0,-100.00,SSW,209,5.0,12.0,65,0.00,,,0.00,306.000000,,2013-02-11 16:42:00,
2013-02-11 11:53:00,73.0,61.0,-100.00,SSW,209,5.0,12.0,65,0.00,,,0.00,306.000000,,2013-02-11 16:53:00,
2013-02-11 12:02:00,73.0,61.0,-100.00,SSW,209,5.0,12.0,65,0.00,,,0.00,306.000000,,2013-02-11 17:02:00,
2013-02-11 12:32:00,77.0,62.0,-100.00,WSW,240,4.0,13.0,59,0.00,,,0.00,459.000000,,2013-02-11 17:32:00,
2013-02-11 12:42:00,77.0,62.0,-100.00,WSW,240,4.0,13.0,59,0.00,,,0.00,459.000000,,2013-02-11 17:42:00,
2013-02-11 12:53:00,77.0,62.0,-100.00,WSW,240,4.0,13.0,59,0.00,,,0.00,459.000000,,2013-02-11 17:53:00,
2013-02-11 13:02:00,77.0,62.0,-100.00,WSW,240,4.0,13.0,59,0.00,,,0.00,459.000000,,2013-02-11 18:02:00,
2013-02-11 13:22:00,76.0,60.0,-100.00,WSW,241,4.0,13.0,57,0.00,,,0.00,272.000000,,2013-02-11 18:22:00,
2013-02-11 13:32:00,76.0,60.0,-100.00,WSW,241,4.0,13.0,57,0.00,,,0.00,272.000000,,2013-02-11 18:32:00,
2013-02-11 13:42:00,76.0,60.0,-100.00,WSW,241,4.0,13.0,57,0.00,,,0.00,272.000000,,2013-02-11 18:42:00,
2013-02-11 13:54:00,76.0,60.0,-100.00,WSW,241,4.0,13.0,57,0.00,,,0.00,272.000000,,2013-02-11 18:54:00,
2013-02-11 14:02:00,76.0,60.0,-100.00,WSW,241,4.0,13.0,57,0.00,,,0.00,272.000000,,2013-02-11 19:02:00,
2013-02-11 14:22:00,77.0,61.0,-100.00,West,279,4.0,10.0,57,0.00,,,0.00,327.000000,,2013-02-11 19:22:00,
2013-02-11 14:32:00,77.0,61.0,-100.00,West,279,4.0,10.0,57,0.00,,,0.00,327.000000,,2013-02-11 19:32:00,
2013-02-11 14:42:00,77.0,61.0,-100.00,West,279,4.0,10.0,57,0.00,,,0.00,327.000000,,2013-02-11 19:42:00,
2013-02-11 14:52:00,77.0,61.0,-100.00,West,279,4.0,10.0,57,0.00,,,0.00,327.000000,,2013-02-11 19:52:00,
2013-02-11 15:02:00,77.0,61.0,-100.00,West,279,4.0,10.0,57,0.00,,,0.00,327.000000,,2013-02-11 20:02:00,
2013-02-11 15:32:00,79.0,61.0,-100.00,WSW,242,4.0,11.0,54,0.00,,,0.00,397.000000,,2013-02-11 20:32:00,
2013-02-11 15:42:00,79.0,61.0,-100.00,WSW,242,4.0,11.0,54,0.00,,,0.00,397.000000,,2013-02-11 20:42:00,
2013-02-11 15:52:00,79.0,61.0,-100.00,WSW,242,4.0,11.0,54,0.00,,,0.00,397.000000,,2013-02-11 20:52:00,
2013-02-11 16:02:00,79.0,61.0,-100.00,WSW,242,4.0,11.0,54,0.00,,,0.00,397.000000,,2013-02-11 21:02:00,
2013-02-11 16:32:00,77.0,61.0,-100.00,WSW,247,2.0,7.0,58,0.00,,,0.00,195.000000,,2013-02-11 21:32:00,
2013-02-11 16:42:00,77.0,61.0,-100.00,WSW,247,2.0,7.0,58,0.00,,,0.00,195.000000,,2013-02-11 21:42:00,
2013-02-11 16:52:00,77.0,61.0,-100.00,WSW,247,2.0,7.0,58,0.00,,,0.00,195.000000,,2013-02-11 21:52:00,
2013-02-11 17:02:00,77.0,61.0,-100.00,WSW,247,2.0,7.0,58,0.00,,,0.00,195.000000,,2013-02-11 22:02:00,
2013-02-11 17:32:00,75.0,60.0,-100.00,SE,132,3.0,5.0,60,0.00,,,0.00,111.000000,,2013-02-11 22:32:00,
2013-02-11 17:42:00,75.0,60.0,-100.00,SE,132,3.0,5.0,60,0.00,,,0.00,111.000000,,2013-02-11 22:42:00,
2013-02-11 17:52:00,75.0,60.0,-100.00,SE,132,3.0,5.0,60,0.00,,,0.00,111.000000,,2013-02-11 22:52:00,
2013-02-11 18:02:00,75.0,60.0,-100.00,SE,132,3.0,5.0,60,0.00,,,0.00,111.000000,,2013-02-11 23:02:00,
2013-02-11 18:22:00,71.0,61.0,-100.00,ESE,122,2.0,6.0,71,0.00,,,0.00,27.000000,,2013-02-11 23:22:00,
2013-02-11 18:32:00,71.0,61.0,-100.00,ESE,122,2.0,6.0,71,0.00,,,0.00,27.000000,,2013-02-11 23:32:00,
2013-02-11 18:42:00,71.0,61.0,-100.00,ESE,122,2.0,6.0,71,0.00,,,0.00,27.000000,,2013-02-11 23:42:00,
2013-02-11 18:52:00,71.0,61.0,-100.00,ESE,122,2.0,6.0,71,0.00,,,0.00,27.000000,,2013-02-11 23:52:00,
2013-02-11 19:02:00,71.0,61.0,-100.00,ESE,122,2.0,6.0,71,0.00,,,0.00,27.000000,,2013-02-12 00:02:00,
2013-02-11 19:32:00,68.0,62.0,-100.00,ESE,122,2.0,5.0,80,0.00,,,0.00,0.000000,,2013-02-12 00:32:00,
2013-02-11 19:42:00,68.0,62.0,-100.00,ESE,122,2.0,5.0,80,0.00,,,0.00,0.000000,,2013-02-12 00:42:00,
2013-02-11 19:52:00,68.0,62.0,-100.00,ESE,122,2.0,5.0,80,0.00,,,0.00,0.000000,,2013-02-12 00:52:00,
2013-02-11 20:02:00,68.0,62.0,-100.00,ESE,122,2.0,5.0,80,0.00,,,0.00,0.000000,,2013-02-12 01:02:00,
2013-02-11 20:32:00,68.0,63.0,-100.00,NE,46,2.0,5.0,83,0.00,,,0.00,0.000000,,2013-02-12 01:32:00,
2013-02-11 20:42:00,68.0,63.0,-100.00,NE,46,2.0,5.0,83,0.00,,,0.00,0.000000,,2013-02-12 01:42:00,
2013-02-11 20:52:00,68.0,63.0,-100.00,NE,46,2.0,5.0,83,0.00,,,0.00,0.000000,,2013-02-12 01:52:00,
2013-02-11 21:02:00,68.0,63.0,-100.00,NE,46,2.0,5.0,83,0.00,,,0.00,0.000000,,2013-02-12 02:02:00,
2013-02-11 21:22:00,65.0,59.0,-100.00,NNE,32,3.0,8.0,82,0.00,,,0.00,0.000000,,2013-02-12 02:22:00,
2013-02-11 21:32:00,65.0,59.0,-100.00,NNE,32,3.0,8.0,82,0.00,,,0.00,0.000000,,2013-02-12 02:32:00,
2013-02-11 21:42:00,65.0,59.0,-100.00,NNE,32,3.0,8.0,82,0.00,,,0.00,0.000000,,2013-02-12 02:42:00,
2013-02-11 21:53:00,65.0,59.0,-100.00,NNE,32,3.0,8.0,82,0.00,,,0.00,0.000000,,2013-02-12 02:53:00,
2013-02-11 22:02:00,65.0,59.0,-100.00,NNE,32,3.0,8.0,82,0.00,,,0.00,0.000000,,2013-02-12 03:02:00,
2013-02-11 22:32:00,63.0,59.0,-100.00,North,4,1.0,5.0,88,0.00,,,0.00,0.000000,,2013-02-12 03:32:00,
2013-02-11 22:42:00,63.0,59.0,-100.00,North,4,1.0,5.0,88,0.00,,,0.00,0.000000,,2013-02-12 03:42:00,
2013-02-11 22:52:00,63.0,59.0,-100.00,North,4,1.0,5.0,88,0.00,,,0.00,0.000000,,2013-02-12 03:52:00,
2013-02-11 23:01:00,63.0,59.0,-100.00,North,4,1.0,5.0,88,0.00,,,0.00,0.000000,,2013-02-12 04:01:00,
2013-02-11 23:21:00,62.0,59.0,-100.00,NW,324,2.0,5.0,89,0.00,,,0.00,0.000000,,2013-02-12 04:21:00,
2013-02-11 23:32:00,62.0,59.0,-100.00,NW,324,2.0,5.0,89,0.00,,,0.00,0.000000,,2013-02-12 04:32:00,
2013-02-11 23:42:00,62.0,59.0,-100.00,NW,324,2.0,5.0,89,0.00,,,0.00,0.000000,,2013-02-12 04:42:00,
2013-02-11 23:52:00,62.0,59.0,-100.00,NW,324,2.0,5.0,89,0.00,,,0.00,0.000000,,2013-02-12 04:52:00,